Bachir Chihani — 7TJA — position and weather

sailwx.info

Track history (hours):
 
Tides and Currents Weather Stations Pressure Air Temp Water Temp Dewpoint Dewpoint Depression Visibility Wind Speed Wind Dir Waves Ship Positions

Bachir Chihani

Last reported at 2016-May-31 03:05 UTC. Time now 2016-May-31 12:06 UTC.
Position N 35°52' W 000°11'.

Length 280 m; draft 9.3 m.

Type: Tanker. MMSI: 605106010.

Date/timePositionNaut miles runAvg speedWind from/ knotsBaromVisibWave heightAir tempDewpointWater temp
2016-May-31 03:05N 35°52' W 000°11'  
2016-May-28 09:29N 35°52' W 000°11'0 0.0
2016-May-27 20:29N 35°52' W 000°11'0 0.0
2016-May-27 19:11N 35°52' W 000°11'0 0.1
2016-May-27 18:29N 35°52' W 000°11'0 0.0
2016-May-27 17:29N 35°52' W 000°11'0 0.0
2016-May-27 16:29N 35°52' W 000°11'0 0.0
2016-May-26 23:29N 35°52' W 000°11'0 0.0
2016-May-26 22:11N 35°52' W 000°11'0 0.1
2016-May-26 20:14N 35°52' W 000°11'1 0.0
2016-May-25 15:19N 35°52' W 000°11'5 1.9
2016-May-25 12:33N 35°56' W 000°07'1 0.8
2016-May-25 11:33N 35°57' W 000°06'5 4.4
2016-May-25 10:27N 36°02' W 000°05'4 3.9
2016-May-25 09:32N 36°05' W 000°02'33 3.0
2016-May-24 22:24N 36°29' E 000°26'5 5.3
2016-May-24 21:33N 36°26' E 000°22'7 5.9
2016-May-24 20:18N 36°21' E 000°15'4 5.7
2016-May-24 19:33N 36°19' E 000°11'5 5.3
2016-May-24 18:33N 36°15' E 000°06'5 5.0
2016-May-24 17:33N 36°12' E 000°01'5 4.6
2016-May-24 16:33N 36°08' W 000°02'5 4.8
2016-May-24 15:33N 36°04' W 000°05'5 4.5
2016-May-24 14:32N 35°59' W 000°07'2 0.2
2016-May-24 06:29N 35°58' W 000°08'4 3.9
2016-May-24 05:33N 36°01' W 000°06'4 3.9
2016-May-24 04:33N 36°05' W 000°04'3 3.2
2016-May-24 03:33N 36°08' W 000°02'3 3.4
2016-May-24 02:33N 36°11' W 000°00'9 3.5
2016-May-24 00:05N 36°16' E 000°09'2 2.9
2016-May-23 23:33N 36°15' E 000°07'5 4.4
2016-May-23 22:30N 36°12' E 000°02'9 4.0
2016-May-23 20:12N 36°05' W 000°04'52 2.7
2016-May-23 01:21N 36°48' W 000°39'8 9.5
2016-May-23 00:30N 36°56' W 000°43'10 9.7
2016-May-22 23:31N 37°05' W 000°48'9 9.5
2016-May-22 22:33N 37°13' W 000°51'9 9.2
2016-May-22 21:33N 37°22' W 000°55'9 9.4
2016-May-22 20:33N 37°30' W 001°01'1 0.5
2016-May-22 18:22N 37°30' W 001°00'3 3.9
2016-May-22 17:33N 37°29' W 000°56'3 3.2
2016-May-22 16:33N 37°27' W 000°53'3 2.6
2016-May-22 15:31N 37°25' W 000°51'2 1.6
2016-May-22 14:33N 37°23' W 000°52'2 2.2
2016-May-22 13:33N 37°21' W 000°51'2 1.6
2016-May-22 12:33N 37°19' W 000°51'3 2.3
2016-May-22 11:26N 37°20' W 000°54'4 4.3
2016-May-22 10:34N 37°21' W 000°59'5 4.6
2016-May-22 09:32N 37°20' W 001°05'6 1.7
2016-May-22 06:06N 37°17' W 001°11'0 0.8
2016-May-22 05:33N 37°17' W 001°11'1 0.7
2016-May-22 04:23N 37°17' W 001°10'1 0.7
2016-May-22 03:33N 37°17' W 001°09'1 0.7
2016-May-22 02:32N 37°17' W 001°08'1 0.7
2016-May-22 01:32N 37°18' W 001°07'1 0.7
2016-May-22 00:33N 37°18' W 001°07'2 1.8
2016-May-21 23:32N 37°17' W 001°04'1 1.5
2016-May-21 22:34N 37°18' W 001°03'1 0.6
2016-May-21 21:34N 37°18' W 001°02'1 0.7
2016-May-21 20:33N 37°19' W 001°02'1 0.6
2016-May-21 19:34N 37°19' W 001°01'1 0.6
2016-May-21 18:33N 37°19' W 001°00'1 0.6
2016-May-21 17:33N 37°19' W 000°60'1 0.6
2016-May-21 16:33N 37°20' W 000°59'1 0.6
2016-May-21 15:33N 37°20' W 000°58'1 1.1
2016-May-21 14:33N 37°21' W 000°57'1 0.7
2016-May-21 13:33N 37°20' W 000°56'1 0.7
2016-May-21 12:33N 37°20' W 000°56'1 1.4
2016-May-21 11:34N 37°22' W 000°56'4 4.1
2016-May-21 10:32N 37°25' W 000°58'4 4.1
2016-May-21 09:32N 37°29' W 000°60'3 2.7
2016-May-21 08:33N 37°32' W 000°58'0 0.3
2016-May-21 07:33N 37°32' W 000°58'0 0.4
2016-May-21 06:25N 37°32' W 000°58'2 1.8
2016-May-21 05:33N 37°31' W 000°58'6 5.6
2016-May-21 04:33N 37°25' W 000°56'4 3.6
2016-May-21 03:33N 37°22' W 000°54'  
Track history (hours):
 
Tides and Currents Weather Stations Pressure Air Temp Water Temp Dewpoint Dewpoint Depression Visibility Wind Speed Wind Dir Waves Ship Positions

Bachir Chihani

Last reported at 2016-May-31 03:05 UTC. Time now 2016-May-31 12:06 UTC.
Position N 35°52' W 000°11'.

Length 280 m; draft 9.3 m.

Type: Tanker. MMSI: 605106010.

Date/timePositionNaut miles runAvg speedWind from/ knotsBaromVisibWave heightAir tempDewpointWater temp
2016-May-31 03:05N 35°52' W 000°11'  
2016-May-28 09:29N 35°52' W 000°11'0 0.0
2016-May-27 20:29N 35°52' W 000°11'0 0.0
2016-May-27 19:11N 35°52' W 000°11'0 0.1
2016-May-27 18:29N 35°52' W 000°11'0 0.0
2016-May-27 17:29N 35°52' W 000°11'0 0.0
2016-May-27 16:29N 35°52' W 000°11'0 0.0
2016-May-26 23:29N 35°52' W 000°11'0 0.0
2016-May-26 22:11N 35°52' W 000°11'0 0.1
2016-May-26 20:14N 35°52' W 000°11'1 0.0
2016-May-25 15:19N 35°52' W 000°11'5 1.9
2016-May-25 12:33N 35°56' W 000°07'1 0.8
2016-May-25 11:33N 35°57' W 000°06'5 4.4
2016-May-25 10:27N 36°02' W 000°05'4 3.9
2016-May-25 09:32N 36°05' W 000°02'33 3.0
2016-May-24 22:24N 36°29' E 000°26'5 5.3
2016-May-24 21:33N 36°26' E 000°22'7 5.9
2016-May-24 20:18N 36°21' E 000°15'4 5.7
2016-May-24 19:33N 36°19' E 000°11'5 5.3
2016-May-24 18:33N 36°15' E 000°06'5 5.0
2016-May-24 17:33N 36°12' E 000°01'5 4.6
2016-May-24 16:33N 36°08' W 000°02'5 4.8
2016-May-24 15:33N 36°04' W 000°05'5 4.5
2016-May-24 14:32N 35°59' W 000°07'2 0.2
2016-May-24 06:29N 35°58' W 000°08'4 3.9
2016-May-24 05:33N 36°01' W 000°06'4 3.9
2016-May-24 04:33N 36°05' W 000°04'3 3.2
2016-May-24 03:33N 36°08' W 000°02'3 3.4
2016-May-24 02:33N 36°11' W 000°00'9 3.5
2016-May-24 00:05N 36°16' E 000°09'2 2.9
2016-May-23 23:33N 36°15' E 000°07'5 4.4
2016-May-23 22:30N 36°12' E 000°02'9 4.0
2016-May-23 20:12N 36°05' W 000°04'52 2.7
2016-May-23 01:21N 36°48' W 000°39'8 9.5
2016-May-23 00:30N 36°56' W 000°43'10 9.7
2016-May-22 23:31N 37°05' W 000°48'9 9.5
2016-May-22 22:33N 37°13' W 000°51'9 9.2
2016-May-22 21:33N 37°22' W 000°55'9 9.4
2016-May-22 20:33N 37°30' W 001°01'1 0.5
2016-May-22 18:22N 37°30' W 001°00'3 3.9
2016-May-22 17:33N 37°29' W 000°56'3 3.2
2016-May-22 16:33N 37°27' W 000°53'3 2.6
2016-May-22 15:31N 37°25' W 000°51'2 1.6
2016-May-22 14:33N 37°23' W 000°52'2 2.2
2016-May-22 13:33N 37°21' W 000°51'2 1.6
2016-May-22 12:33N 37°19' W 000°51'3 2.3
2016-May-22 11:26N 37°20' W 000°54'4 4.3
2016-May-22 10:34N 37°21' W 000°59'5 4.6
2016-May-22 09:32N 37°20' W 001°05'6 1.7
2016-May-22 06:06N 37°17' W 001°11'0 0.8
2016-May-22 05:33N 37°17' W 001°11'1 0.7
2016-May-22 04:23N 37°17' W 001°10'1 0.7
2016-May-22 03:33N 37°17' W 001°09'1 0.7
2016-May-22 02:32N 37°17' W 001°08'1 0.7
2016-May-22 01:32N 37°18' W 001°07'1 0.7
2016-May-22 00:33N 37°18' W 001°07'2 1.8
2016-May-21 23:32N 37°17' W 001°04'1 1.5
2016-May-21 22:34N 37°18' W 001°03'1 0.6
2016-May-21 21:34N 37°18' W 001°02'1 0.7
2016-May-21 20:33N 37°19' W 001°02'1 0.6
2016-May-21 19:34N 37°19' W 001°01'1 0.6
2016-May-21 18:33N 37°19' W 001°00'1 0.6
2016-May-21 17:33N 37°19' W 000°60'1 0.6
2016-May-21 16:33N 37°20' W 000°59'1 0.6
2016-May-21 15:33N 37°20' W 000°58'1 1.1
2016-May-21 14:33N 37°21' W 000°57'1 0.7
2016-May-21 13:33N 37°20' W 000°56'1 0.7
2016-May-21 12:33N 37°20' W 000°56'1 1.4
2016-May-21 11:34N 37°22' W 000°56'4 4.1
2016-May-21 10:32N 37°25' W 000°58'4 4.1
2016-May-21 09:32N 37°29' W 000°60'3 2.7
2016-May-21 08:33N 37°32' W 000°58'0 0.3
2016-May-21 07:33N 37°32' W 000°58'0 0.4
2016-May-21 06:25N 37°32' W 000°58'2 1.8
2016-May-21 05:33N 37°31' W 000°58'6 5.6
2016-May-21 04:33N 37°25' W 000°56'4 3.6
2016-May-21 03:33N 37°22' W 000°54'  

Dump ship's entire track history